Terminal Aerodrome Forecast
Issued by NWS Sioux Falls, SD

Home | Current Version | Previous Version | Text Only | Print | Product List | Glossary On
Versions: 1 2 3 4 5 6 7 8 9 10 11 12
000
FTUS43 KFSD 241725
TAFSUX
TAF
KSUX 241725Z 2418/2518 01007KT P6SM SCT030
     FM242200 VRB03KT P6SM SCT090
     FM251100 15007KT P6SM SCT200
     FM251500 16013G20KT P6SM SCT200=

USA.gov is the U.S. government's official web portal to all federal, state and local government web resources and services.